createdAt,value
2023-01-31T00:00:00.129Z,1.27
2023-01-31T00:02:32.347Z,1.30
2023-01-31T00:05:03.165Z,1.00
2023-01-31T00:07:31.238Z,1.73
2023-01-31T00:09:59.241Z,1.50
2023-01-31T00:12:27.603Z,1.33
2023-01-31T00:14:55.541Z,1.27
2023-01-31T00:17:23.597Z,1.27
2023-01-31T00:19:53.209Z,1.40
2023-01-31T00:22:21.282Z,0.88
2023-01-31T00:24:49.280Z,1.80
2023-01-31T00:27:17.663Z,1.35
2023-01-31T00:29:45.724Z,1.02
2023-01-31T00:32:13.841Z,1.12
2023-01-31T00:34:42.111Z,0.93
2023-01-31T00:37:11.399Z,1.10
2023-01-31T00:39:39.380Z,0.98
2023-01-31T00:42:07.822Z,1.62
2023-01-31T00:44:37.181Z,1.00
2023-01-31T00:47:05.770Z,0.95
2023-01-31T00:49:35.333Z,1.10
2023-01-31T00:52:03.782Z,2.03
2023-01-31T00:54:34.094Z,1.12
2023-01-31T00:57:02.647Z,1.48
2023-01-31T00:59:31.034Z,1.73
2023-01-31T01:01:59.110Z,1.50
2023-01-31T01:04:27.397Z,1.17
2023-01-31T01:06:55.427Z,0.55
2023-01-31T01:09:23.858Z,0.88
2023-01-31T01:11:54.610Z,0.60
2023-01-31T01:14:22.641Z,0.85
2023-01-31T01:16:50.968Z,1.27
2023-01-31T01:19:21.801Z,0.80
2023-01-31T01:21:49.904Z,0.82
2023-01-31T01:24:19.706Z,1.12
2023-01-31T01:26:48.630Z,0.95
2023-01-31T01:29:17.950Z,0.77
2023-01-31T01:31:46.200Z,0.95
2023-01-31T01:34:16.859Z,1.08
2023-01-31T01:36:47.807Z,1.35
2023-01-31T01:39:18.075Z,1.15
2023-01-31T01:41:47.482Z,1.08
2023-01-31T01:44:46.369Z,0.62
2023-01-31T01:47:24.174Z,1.00
2023-01-31T01:49:55.629Z,1.10
2023-01-31T01:52:27.468Z,1.15
2023-01-31T01:54:59.568Z,1.10
2023-01-31T01:57:32.611Z,0.93
2023-01-31T02:00:10.877Z,0.80
2023-01-31T02:02:44.049Z,0.70
2023-01-31T02:05:15.922Z,1.20
2023-01-31T02:07:44.794Z,0.52
2023-01-31T02:10:18.631Z,1.12
2023-01-31T02:12:47.270Z,1.35
2023-01-31T02:15:17.704Z,0.62
2023-01-31T02:17:45.898Z,1.00
2023-01-31T02:20:44.883Z,0.80
2023-01-31T02:23:37.228Z,1.20
2023-01-31T02:26:41.804Z,0.55
2023-01-31T02:29:34.183Z,0.57
2023-01-31T02:32:36.669Z,0.62
2023-01-31T02:35:11.393Z,1.20
2023-01-31T02:37:50.421Z,0.85
2023-01-31T02:40:25.385Z,0.75
2023-01-31T02:43:01.511Z,1.25
2023-01-31T02:45:38.968Z,0.98
2023-01-31T02:48:19.189Z,1.02
2023-01-31T02:51:01.312Z,0.80
2023-01-31T02:53:34.197Z,1.15
2023-01-31T02:56:15.297Z,0.95
2023-01-31T02:58:50.553Z,1.87
2023-01-31T03:01:24.576Z,1.45
2023-01-31T03:03:58.335Z,1.50
2023-01-31T03:06:59.905Z,1.35
2023-01-31T03:09:38.544Z,1.45
2023-01-31T03:12:40.885Z,2.00
2023-01-31T03:16:02.369Z,1.05
2023-01-31T03:18:36.374Z,0.40
2023-01-31T03:21:10.010Z,0.77
2023-01-31T03:23:42.140Z,1.10
2023-01-31T03:26:11.407Z,1.23
2023-01-31T03:28:42.983Z,1.42
2023-01-31T03:31:18.748Z,1.77
2023-01-31T03:33:50.603Z,1.42
2023-01-31T03:36:29.668Z,0.68
2023-01-31T03:39:08.059Z,1.05
2023-01-31T03:41:48.099Z,1.25
2023-01-31T03:44:22.977Z,1.27
2023-01-31T03:46:57.256Z,1.00
2023-01-31T03:49:28.610Z,0.70
2023-01-31T03:52:04.210Z,0.80
2023-01-31T03:54:37.987Z,0.98
2023-01-31T03:57:13.284Z,0.88
2023-01-31T03:59:44.625Z,1.15
2023-01-31T04:02:17.491Z,0.85
2023-01-31T04:04:51.787Z,1.12
2023-01-31T04:07:21.275Z,1.05
2023-01-31T04:09:49.857Z,1.15
2023-01-31T04:12:17.936Z,1.05
2023-01-31T04:14:46.133Z,0.75
2023-01-31T04:17:14.512Z,1.02
2023-01-31T04:19:42.783Z,1.33
2023-01-31T04:22:10.862Z,1.48
2023-01-31T04:24:40.660Z,0.70
2023-01-31T04:27:08.663Z,1.20
2023-01-31T04:29:36.746Z,0.93
2023-01-31T04:32:05.405Z,0.90
2023-01-31T04:34:33.403Z,0.73
2023-01-31T04:37:01.367Z,1.12
2023-01-31T04:39:29.943Z,0.62
2023-01-31T04:41:59.242Z,0.75
2023-01-31T04:44:27.346Z,1.05
2023-01-31T04:46:55.816Z,1.12
2023-01-31T04:49:23.997Z,1.12
2023-01-31T04:51:52.183Z,0.95
2023-01-31T04:54:20.697Z,0.93
2023-01-31T04:56:48.753Z,0.85
2023-01-31T04:59:18.104Z,0.68
2023-01-31T05:01:47.054Z,1.12
2023-01-31T05:04:15.108Z,0.68
2023-01-31T05:06:43.120Z,0.88
2023-01-31T05:09:12.878Z,1.40
2023-01-31T05:11:41.440Z,0.95
2023-01-31T05:14:09.400Z,1.37
2023-01-31T05:16:39.023Z,1.45
2023-01-31T05:19:07.255Z,0.73
2023-01-31T05:21:54.863Z,1.05
2023-01-31T05:24:23.774Z,0.65
2023-01-31T05:26:54.014Z,1.02
2023-01-31T05:29:22.197Z,0.80
2023-01-31T05:31:53.378Z,1.00
2023-01-31T05:34:21.674Z,0.88
2023-01-31T05:36:49.804Z,0.60
2023-01-31T05:39:18.285Z,0.68
2023-01-31T05:41:46.501Z,0.60
2023-01-31T05:44:16.306Z,0.68
2023-01-31T05:46:44.606Z,0.35
2023-01-31T05:49:14.065Z,0.65
2023-01-31T05:51:42.543Z,0.90
2023-01-31T05:54:12.727Z,1.10
2023-01-31T05:56:40.866Z,0.88
2023-01-31T05:59:09.054Z,0.73
2023-01-31T06:01:37.454Z,0.55
2023-01-31T06:04:06.015Z,0.75
2023-01-31T06:06:35.443Z,0.62
2023-01-31T06:09:03.521Z,0.70
2023-01-31T06:11:31.985Z,0.80
2023-01-31T06:14:00.000Z,1.42
2023-01-31T06:16:28.170Z,0.90
2023-01-31T06:18:57.085Z,0.43
2023-01-31T06:21:25.138Z,0.77
2023-01-31T06:23:54.508Z,0.50
2023-01-31T06:26:22.845Z,1.23
2023-01-31T06:28:50.838Z,0.68
2023-01-31T06:31:19.555Z,1.27
2023-01-31T06:33:48.304Z,0.90
2023-01-31T06:36:19.270Z,1.20
2023-01-31T06:38:51.363Z,0.60
2023-01-31T06:41:21.805Z,0.70
2023-01-31T06:43:51.321Z,1.25
2023-01-31T06:46:19.526Z,0.88
2023-01-31T06:48:48.456Z,0.57
2023-01-31T06:51:17.003Z,0.68
2023-01-31T06:53:45.078Z,0.57
2023-01-31T06:56:13.121Z,0.80
2023-01-31T06:58:42.718Z,0.70
2023-01-31T07:01:12.447Z,1.55
2023-01-31T07:03:40.936Z,0.98
2023-01-31T07:06:10.852Z,0.57
2023-01-31T07:08:39.238Z,0.52
2023-01-31T07:11:07.718Z,0.90
2023-01-31T07:13:36.144Z,1.08
2023-01-31T07:16:06.358Z,0.93
2023-01-31T07:18:34.727Z,1.33
2023-01-31T07:21:03.120Z,0.80
2023-01-31T07:23:31.208Z,0.88
2023-01-31T07:26:02.238Z,0.90
2023-01-31T07:28:31.202Z,0.77
2023-01-31T07:31:06.694Z,0.77
2023-01-31T07:33:35.089Z,1.17
2023-01-31T07:36:04.615Z,0.68
2023-01-31T07:38:33.191Z,1.00
2023-01-31T07:41:03.162Z,0.65
2023-01-31T07:43:32.539Z,1.33
2023-01-31T07:46:00.541Z,0.70
2023-01-31T07:48:30.081Z,0.80
2023-01-31T07:51:01.064Z,1.10
2023-01-31T07:53:31.889Z,1.15
2023-01-31T07:56:07.188Z,1.20
2023-01-31T07:58:36.926Z,1.25
2023-01-31T08:01:23.368Z,1.12
2023-01-31T08:03:53.578Z,0.80
2023-01-31T08:06:21.618Z,1.52
2023-01-31T08:08:49.607Z,1.33
2023-01-31T08:11:17.956Z,1.30
2023-01-31T08:13:45.972Z,1.25
2023-01-31T08:16:14.074Z,0.85
2023-01-31T08:18:42.492Z,1.15
2023-01-31T08:21:14.530Z,0.90
2023-01-31T08:23:43.356Z,1.30
2023-01-31T08:26:14.196Z,0.60
2023-01-31T08:28:44.014Z,1.10
2023-01-31T08:31:15.305Z,0.90
2023-01-31T08:33:44.103Z,1.73
2023-01-31T08:36:18.075Z,0.93
2023-01-31T08:38:46.752Z,0.77
2023-01-31T08:41:16.974Z,1.40
2023-01-31T08:43:55.910Z,1.20
2023-01-31T08:46:27.251Z,1.05
2023-01-31T08:48:55.583Z,0.90
2023-01-31T08:51:25.236Z,0.82
2023-01-31T08:53:53.637Z,1.73
2023-01-31T08:56:25.395Z,0.55
2023-01-31T08:58:55.249Z,1.33
2023-01-31T09:01:23.437Z,1.17
2023-01-31T09:03:56.473Z,0.65
2023-01-31T09:06:28.027Z,1.12
2023-01-31T09:08:57.834Z,1.67
2023-01-31T09:11:28.832Z,1.10
2023-01-31T09:13:57.623Z,1.20
2023-01-31T09:16:26.118Z,0.70
2023-01-31T09:18:56.032Z,1.20
2023-01-31T09:21:26.257Z,1.42
2023-01-31T09:24:00.231Z,1.05
2023-01-31T09:26:28.362Z,1.05
2023-01-31T09:28:57.914Z,1.12
2023-01-31T09:31:26.138Z,0.98
2023-01-31T09:33:54.783Z,1.00
2023-01-31T09:36:24.923Z,0.80
2023-01-31T09:38:57.018Z,0.80
2023-01-31T09:41:31.949Z,0.55
2023-01-31T09:44:03.796Z,1.20
2023-01-31T09:46:38.086Z,0.62
2023-01-31T09:49:11.734Z,1.08
2023-01-31T09:51:40.739Z,0.90
2023-01-31T09:54:20.787Z,1.02
2023-01-31T09:56:57.231Z,0.82
2023-01-31T09:59:31.979Z,1.20
2023-01-31T10:02:07.977Z,0.93
2023-01-31T10:04:47.281Z,1.12
2023-01-31T10:07:21.251Z,0.70
2023-01-31T10:09:56.617Z,1.40
2023-01-31T10:12:31.675Z,1.10
2023-01-31T10:15:03.550Z,0.95
2023-01-31T10:17:35.196Z,1.10
2023-01-31T10:20:08.133Z,1.30
2023-01-31T10:22:40.835Z,1.58
2023-01-31T10:25:25.424Z,1.73
2023-01-31T10:28:00.427Z,1.05
2023-01-31T10:30:38.386Z,0.80
2023-01-31T10:33:19.707Z,1.17
2023-01-31T10:35:51.373Z,1.40
2023-01-31T10:38:24.748Z,1.05
2023-01-31T10:41:00.698Z,0.95
2023-01-31T10:43:40.472Z,1.02
2023-01-31T10:46:12.564Z,1.35
2023-01-31T10:48:44.394Z,1.65
2023-01-31T10:51:27.813Z,1.02
2023-01-31T10:54:13.123Z,1.17
2023-01-31T10:56:45.763Z,1.17
2023-01-31T10:59:18.757Z,1.80
2023-01-31T11:01:47.347Z,1.33
2023-01-31T11:04:29.055Z,1.17
2023-01-31T11:06:58.972Z,1.40
2023-01-31T11:09:30.227Z,1.58
2023-01-31T11:12:02.408Z,1.80
2023-01-31T11:14:31.529Z,1.85
2023-01-31T11:17:03.886Z,1.33
2023-01-31T11:19:36.868Z,1.92
2023-01-31T11:22:05.675Z,1.45
2023-01-31T11:24:36.502Z,1.48
2023-01-31T11:27:08.640Z,1.50
2023-01-31T11:29:41.246Z,1.23
2023-01-31T11:32:19.318Z,1.50
2023-01-31T11:34:58.242Z,1.45
2023-01-31T11:37:27.684Z,1.33
2023-01-31T11:39:57.086Z,1.58
2023-01-31T11:42:27.623Z,1.20
2023-01-31T11:44:58.136Z,1.30
2023-01-31T11:47:34.666Z,1.67
2023-01-31T11:50:03.964Z,1.40
2023-01-31T11:52:34.772Z,1.42
2023-01-31T11:55:07.667Z,1.10
2023-01-31T11:57:39.445Z,1.25
2023-01-31T12:00:21.663Z,1.67
2023-01-31T12:02:55.089Z,2.08
2023-01-31T12:05:37.102Z,1.45
2023-01-31T12:08:06.513Z,1.92
2023-01-31T12:10:43.592Z,1.67
2023-01-31T12:13:19.547Z,1.50
2023-01-31T12:15:55.440Z,2.47
2023-01-31T12:18:39.447Z,2.45
2023-01-31T12:21:14.388Z,1.40
2023-01-31T12:23:57.111Z,1.77
2023-01-31T12:26:36.063Z,1.40
2023-01-31T12:29:25.465Z,1.92
2023-01-31T12:32:10.475Z,2.60
2023-01-31T12:35:01.649Z,1.90
2023-01-31T12:37:41.561Z,1.37
2023-01-31T12:40:29.565Z,1.60
2023-01-31T12:43:02.270Z,1.83
2023-01-31T12:45:53.079Z,1.65
2023-01-31T12:48:50.756Z,2.53
2023-01-31T12:51:36.518Z,2.35
2023-01-31T12:54:20.600Z,2.53
2023-01-31T12:57:00.115Z,1.52
2023-01-31T12:59:42.011Z,2.55
2023-01-31T13:02:26.672Z,1.65
2023-01-31T13:05:00.313Z,2.58
2023-01-31T13:07:35.158Z,2.30
2023-01-31T13:10:06.723Z,1.80
2023-01-31T13:12:37.570Z,2.10
2023-01-31T13:15:15.540Z,1.98
2023-01-31T13:17:49.170Z,2.33
2023-01-31T13:20:27.909Z,1.60
2023-01-31T13:23:00.274Z,2.67
2023-01-31T13:25:38.711Z,1.60
2023-01-31T13:28:14.479Z,2.58
2023-01-31T13:30:46.009Z,1.60
2023-01-31T13:33:30.881Z,1.98
2023-01-31T13:36:08.124Z,2.67
2023-01-31T13:38:40.768Z,2.20
2023-01-31T13:41:18.555Z,1.77
2023-01-31T13:43:46.751Z,2.87
2023-01-31T13:46:19.803Z,2.03
2023-01-31T13:48:54.708Z,1.98
2023-01-31T13:51:26.383Z,1.67
2023-01-31T13:53:59.591Z,1.90
2023-01-31T13:56:30.529Z,1.77
2023-01-31T13:58:59.423Z,1.75
2023-01-31T14:01:30.078Z,1.42
2023-01-31T14:04:25.983Z,1.60
2023-01-31T14:07:14.310Z,1.67
2023-01-31T14:09:46.412Z,1.27
2023-01-31T14:12:33.360Z,1.58
2023-01-31T14:15:02.771Z,1.80
2023-01-31T14:18:00.138Z,1.92
2023-01-31T14:20:32.197Z,1.62
2023-01-31T14:23:32.524Z,1.35
2023-01-31T14:26:00.892Z,1.25
2023-01-31T14:28:29.163Z,1.40
2023-01-31T14:30:57.469Z,1.62
2023-01-31T14:33:30.433Z,1.50
2023-01-31T14:36:34.032Z,1.52
2023-01-31T14:39:28.838Z,1.67
2023-01-31T14:42:14.994Z,1.75
2023-01-31T14:44:55.788Z,1.85
2023-01-31T14:47:41.641Z,1.12
2023-01-31T14:50:33.209Z,1.42
2023-01-31T14:53:18.744Z,1.35
2023-01-31T14:56:01.747Z,1.77
2023-01-31T14:58:34.234Z,2.20
2023-01-31T15:01:06.423Z,1.52
2023-01-31T15:03:38.657Z,1.58
2023-01-31T15:06:11.676Z,2.28
2023-01-31T15:08:44.808Z,2.00
2023-01-31T15:11:41.368Z,1.70
2023-01-31T15:14:34.282Z,1.40
2023-01-31T15:17:27.188Z,1.17
2023-01-31T15:20:07.542Z,1.87
2023-01-31T15:22:41.394Z,1.45
2023-01-31T15:25:26.338Z,1.75
2023-01-31T15:27:57.844Z,1.90
2023-01-31T15:30:29.038Z,1.80
2023-01-31T15:33:01.609Z,1.87
2023-01-31T15:35:32.299Z,2.12
2023-01-31T15:38:05.096Z,1.25
2023-01-31T15:40:34.599Z,1.60
2023-01-31T15:43:22.864Z,1.60
2023-01-31T15:45:52.647Z,1.52
2023-01-31T15:48:22.719Z,1.50
2023-01-31T15:50:52.309Z,1.30
2023-01-31T15:53:23.451Z,1.17
2023-01-31T15:55:56.870Z,1.75
2023-01-31T15:58:28.216Z,1.30
2023-01-31T16:00:59.361Z,1.33
2023-01-31T16:03:31.544Z,1.52
2023-01-31T16:06:01.982Z,1.35
2023-01-31T16:08:34.758Z,1.52
2023-01-31T16:11:09.597Z,0.90
2023-01-31T16:13:40.695Z,1.48
2023-01-31T16:16:11.176Z,1.20
2023-01-31T16:18:40.024Z,2.08
2023-01-31T16:21:17.442Z,1.48
2023-01-31T16:23:45.821Z,1.15
2023-01-31T16:26:21.599Z,1.40
2023-01-31T16:28:54.786Z,0.90
2023-01-31T16:31:24.847Z,0.65
2023-01-31T16:33:55.414Z,1.65
2023-01-31T16:36:26.151Z,1.35
2023-01-31T16:39:01.301Z,1.20
2023-01-31T16:41:45.415Z,1.20
2023-01-31T16:44:18.351Z,0.93
2023-01-31T16:46:47.917Z,0.73
2023-01-31T16:49:22.030Z,0.98
2023-01-31T16:52:08.773Z,1.25
2023-01-31T16:55:02.488Z,1.12
2023-01-31T16:57:38.850Z,0.70
2023-01-31T17:00:28.762Z,1.20
2023-01-31T17:02:59.988Z,1.20
2023-01-31T17:05:31.267Z,0.77
2023-01-31T17:08:00.342Z,1.12
2023-01-31T17:10:30.509Z,1.23
2023-01-31T17:13:02.545Z,0.70
2023-01-31T17:15:30.879Z,1.05
2023-01-31T17:18:00.248Z,0.98
2023-01-31T17:20:28.334Z,0.88
2023-01-31T17:23:02.998Z,1.37
2023-01-31T17:25:34.591Z,1.10
2023-01-31T17:28:02.950Z,0.80
2023-01-31T17:30:31.707Z,0.75
2023-01-31T17:33:01.891Z,0.82
2023-01-31T17:35:33.657Z,1.08
2023-01-31T17:38:01.721Z,1.27
2023-01-31T17:40:30.403Z,1.12
2023-01-31T17:43:00.451Z,0.93
2023-01-31T17:45:29.259Z,0.77
2023-01-31T17:47:57.527Z,1.10
2023-01-31T17:50:29.585Z,1.08
2023-01-31T17:52:58.201Z,1.15
2023-01-31T17:55:26.747Z,0.70
2023-01-31T17:57:54.861Z,0.98
2023-01-31T18:00:23.010Z,1.20
2023-01-31T18:02:52.632Z,1.10
2023-01-31T18:05:33.462Z,0.85
2023-01-31T18:08:07.794Z,1.00
2023-01-31T18:10:35.880Z,1.05
2023-01-31T18:13:03.966Z,1.00
2023-01-31T18:15:32.257Z,1.00
2023-01-31T18:18:00.328Z,1.17
2023-01-31T18:20:28.415Z,0.90
2023-01-31T18:22:56.601Z,1.00
2023-01-31T18:25:26.111Z,1.00
2023-01-31T18:27:54.164Z,1.40
2023-01-31T18:30:22.618Z,1.08
2023-01-31T18:32:50.613Z,1.12
2023-01-31T18:35:21.379Z,1.05
2023-01-31T18:37:50.112Z,1.40
2023-01-31T18:40:18.738Z,1.20
2023-01-31T18:42:48.251Z,1.20
2023-01-31T18:45:16.641Z,0.88
2023-01-31T18:47:44.607Z,1.02
2023-01-31T18:50:12.808Z,0.90
2023-01-31T18:52:43.903Z,0.93
2023-01-31T18:55:12.231Z,0.93
2023-01-31T18:57:40.518Z,0.80
2023-01-31T19:00:11.364Z,1.00
2023-01-31T19:02:39.449Z,1.15
2023-01-31T19:05:09.074Z,1.20
2023-01-31T19:07:37.157Z,1.20
2023-01-31T19:10:05.702Z,1.05
2023-01-31T19:12:34.201Z,0.88
2023-01-31T19:15:02.451Z,1.00
2023-01-31T19:17:31.812Z,0.95
2023-01-31T19:20:00.076Z,1.20
2023-01-31T19:22:28.650Z,1.10
2023-01-31T19:24:57.562Z,1.48
2023-01-31T19:27:26.843Z,1.02
2023-01-31T19:29:54.939Z,1.37
2023-01-31T19:32:23.009Z,1.50
2023-01-31T19:34:54.128Z,1.27
2023-01-31T19:37:22.318Z,1.40
2023-01-31T19:39:50.386Z,1.30
2023-01-31T19:42:18.628Z,0.98
2023-01-31T19:44:46.591Z,1.45
2023-01-31T19:47:14.625Z,1.15
2023-01-31T19:49:42.993Z,1.25
2023-01-31T19:52:12.336Z,1.35
2023-01-31T19:54:41.340Z,1.37
2023-01-31T19:57:09.596Z,1.52
2023-01-31T19:59:37.666Z,1.50
2023-01-31T20:02:05.718Z,1.87
2023-01-31T20:04:33.957Z,2.37
2023-01-31T20:07:02.013Z,1.45
2023-01-31T20:09:31.411Z,1.35
2023-01-31T20:11:59.729Z,1.92
2023-01-31T20:14:28.665Z,1.90
2023-01-31T20:16:56.831Z,2.08
2023-01-31T20:19:25.174Z,1.60
2023-01-31T20:21:53.451Z,2.90
2023-01-31T20:24:21.426Z,2.35
2023-01-31T20:26:51.182Z,2.85
2023-01-31T20:29:19.295Z,1.77
2023-01-31T20:31:48.639Z,1.50
2023-01-31T20:34:16.958Z,2.05
2023-01-31T20:36:44.965Z,1.58
2023-01-31T20:39:13.346Z,1.45
2023-01-31T20:41:41.648Z,2.45
2023-01-31T20:44:10.971Z,2.30
2023-01-31T20:46:38.906Z,2.40
2023-01-31T20:49:07.112Z,2.37
2023-01-31T20:51:35.177Z,2.03
2023-01-31T20:54:03.923Z,1.75
2023-01-31T20:56:32.173Z,2.08
2023-01-31T20:59:00.273Z,2.08
2023-01-31T21:01:29.779Z,2.45
2023-01-31T21:03:58.005Z,1.70
2023-01-31T21:06:25.907Z,2.45
2023-01-31T21:08:55.227Z,2.00
2023-01-31T21:11:23.776Z,2.42
2023-01-31T21:13:51.904Z,2.37
2023-01-31T21:16:19.883Z,2.22
2023-01-31T21:18:49.546Z,2.42
2023-01-31T21:21:23.393Z,2.67
2023-01-31T21:23:53.374Z,2.25
2023-01-31T21:26:23.131Z,2.47
2023-01-31T21:28:53.015Z,1.95
2023-01-31T21:31:21.911Z,2.25
2023-01-31T21:33:52.879Z,2.10
2023-01-31T21:36:23.486Z,1.70
2023-01-31T21:38:52.309Z,1.62
2023-01-31T21:41:38.061Z,1.67
2023-01-31T21:44:06.993Z,1.98
2023-01-31T21:46:35.582Z,1.23
2023-01-31T21:49:05.213Z,1.77
2023-01-31T21:51:33.226Z,1.30
2023-01-31T21:54:01.521Z,1.80
2023-01-31T21:56:30.731Z,1.05
2023-01-31T21:58:58.697Z,1.30
2023-01-31T22:01:28.688Z,1.08
2023-01-31T22:03:58.126Z,1.23
2023-01-31T22:06:31.505Z,1.73
2023-01-31T22:09:01.773Z,1.17
2023-01-31T22:11:32.965Z,0.88
2023-01-31T22:14:02.863Z,0.90
2023-01-31T22:16:31.084Z,0.85
2023-01-31T22:19:00.145Z,0.85
2023-01-31T22:21:31.796Z,0.60
2023-01-31T22:24:02.485Z,0.95
2023-01-31T22:26:32.389Z,1.10
2023-01-31T22:29:02.931Z,0.85
2023-01-31T22:31:32.248Z,1.58
2023-01-31T22:34:01.048Z,0.73
2023-01-31T22:36:30.601Z,0.88
2023-01-31T22:38:58.940Z,0.80
2023-01-31T22:41:27.104Z,0.98
2023-01-31T22:43:56.038Z,1.35
2023-01-31T22:46:26.281Z,1.08
2023-01-31T22:48:55.487Z,1.20
2023-01-31T22:51:25.998Z,0.80
2023-01-31T22:53:56.626Z,1.50
2023-01-31T22:56:26.619Z,1.20
2023-01-31T22:58:59.295Z,1.23
2023-01-31T23:01:29.623Z,1.23
2023-01-31T23:03:59.260Z,1.10
2023-01-31T23:06:28.767Z,1.12
2023-01-31T23:08:58.780Z,1.45
2023-01-31T23:11:27.350Z,0.85
2023-01-31T23:13:55.432Z,0.75
2023-01-31T23:16:45.912Z,1.42
2023-01-31T23:19:15.160Z,0.98
2023-01-31T23:21:44.352Z,1.33
2023-01-31T23:24:15.397Z,1.50
2023-01-31T23:26:44.168Z,1.40
2023-01-31T23:29:12.354Z,1.50
2023-01-31T23:31:40.688Z,1.05
2023-01-31T23:34:09.013Z,0.93
2023-01-31T23:36:36.994Z,1.37
2023-01-31T23:39:05.369Z,0.80
2023-01-31T23:41:34.977Z,0.93
2023-01-31T23:44:03.644Z,0.90
2023-01-31T23:46:31.795Z,1.30
2023-01-31T23:48:59.991Z,0.80
2023-01-31T23:51:30.692Z,0.65
2023-01-31T23:53:58.653Z,1.08
2023-01-31T23:56:27.158Z,0.88
2023-01-31T23:58:56.773Z,1.30
